Time;durP1;ratioP1;P1;durP2;ratioP2;P2;SDS_P1;SDS_P2;PMS_P1;PMS_P2;Temp;Humidity;BMP_temperature;BMP_pressure;BME280_temperature;BME280_humidity;BME280_pressure;Samples;Min_cycle;Max_cycle;Signal;HPM_P1;HPM_P2
2023/07/04 00:01:59;;;;;;;;;17.00;15.00;;;;;25.47;100.00;98429.75;5996567;29;96537;-60
2023/07/04 00:05:03;;;;;;;;;20.75;18.00;;;;;25.53;100.00;98433.13;5995857;29;96337;-61
2023/07/04 00:08:08;;;;;;;;;22.00;19.00;;;;;25.53;100.00;98428.44;5979058;29;96731;-60
2023/07/04 00:11:12;;;;;;;;;23.40;18.60;;;;;25.59;100.00;98429.91;6006601;29;96845;-61
2023/07/04 00:14:15;;;;;;;;;17.00;16.00;;;;;25.57;100.00;98431.34;6001854;29;97435;-60
2023/07/04 00:17:19;;;;;;;;;15.60;15.00;;;;;25.49;100.00;98438.50;5992377;29;98520;-60
2023/07/04 00:20:22;;;;;;;;;16.00;15.00;;;;;25.50;100.00;98439.34;5995128;29;97089;-61
2023/07/04 00:23:29;;;;;;;;;17.00;16.00;;;;;25.49;100.00;98433.00;5995636;29;96906;-60
2023/07/04 00:26:32;;;;;;;;;19.20;16.80;;;;;25.48;100.00;98427.78;6018207;29;97043;-61
2023/07/04 00:29:36;;;;;;;;;20.00;15.00;;;;;25.42;100.00;98425.22;6018405;29;96438;-60
2023/07/04 00:32:39;;;;;;;;;18.00;18.00;;;;;25.44;100.00;98414.66;6016772;29;97081;-61
2023/07/04 00:35:42;;;;;;;;;17.60;15.40;;;;;25.55;100.00;98419.84;6017629;29;96365;-61
2023/07/04 00:38:51;;;;;;;;;15.80;14.80;;;;;25.55;100.00;98415.16;6020115;29;96892;-61
2023/07/04 00:41:55;;;;;;;;;17.75;16.00;;;;;25.54;100.00;98421.78;6019234;29;96579;-60
2023/07/04 00:44:58;;;;;;;;;19.00;17.00;;;;;25.48;100.00;98422.28;6018201;29;96411;-61
2023/07/04 00:48:04;;;;;;;;;19.40;18.00;;;;;25.43;100.00;98413.03;6019931;29;96442;-60
2023/07/04 00:51:09;;;;;;;;;17.00;15.50;;;;;25.43;100.00;98415.00;6003341;29;96361;-60
2023/07/04 00:54:16;;;;;;;;;17.60;15.60;;;;;25.46;100.00;98419.88;6018376;29;96494;-60
2023/07/04 00:57:21;;;;;;;;;14.75;12.25;;;;;25.53;100.00;98419.34;6017757;29;96339;-61
2023/07/04 01:00:25;;;;;;;;;16.60;14.40;;;;;25.55;100.00;98428.13;6019332;29;97126;-61
2023/07/04 01:03:28;;;;;;;;;18.00;17.00;;;;;25.55;100.00;98417.09;6018597;29;96564;-60
2023/07/04 01:06:38;;;;;;;;;18.20;16.00;;;;;25.49;100.00;98427.47;6017677;28;96517;-60
2023/07/04 01:09:49;;;;;;;;;23.00;19.75;;;;;25.44;100.00;98433.19;6020050;29;96442;-60
2023/07/04 01:12:52;;;;;;;;;19.00;16.00;;;;;25.39;100.00;98428.66;6019861;29;96638;-61
2023/07/04 01:15:58;;;;;;;;;22.20;19.20;;;;;25.29;100.00;98415.19;6017403;29;96708;-61
2023/07/04 01:19:02;;;;;;;;;17.00;16.00;;;;;25.13;100.00;98410.53;6019365;29;97023;-60
2023/07/04 01:22:16;;;;;;;;;16.00;14.00;;;;;25.18;100.00;98421.38;6017760;29;97761;-61
2023/07/04 01:25:36;;;;;;;;;19.25;17.75;;;;;25.08;100.00;98419.78;6001803;29;97110;-61
2023/07/04 01:28:42;;;;;;;;;23.00;18.00;;;;;24.97;100.00;98424.84;6002345;29;98998;-61
2023/07/04 01:31:46;;;;;;;;;18.00;17.00;;;;;24.90;100.00;98421.78;6001728;29;97206;-61
2023/07/04 01:34:50;;;;;;;;;18.00;18.00;;;;;24.83;100.00;98424.19;6018963;29;96583;-60
2023/07/04 01:37:54;;;;;;;;;16.00;15.40;;;;;24.81;100.00;98433.94;6000664;29;96725;-61
2023/07/04 01:40:57;;;;;;;;;21.20;19.40;;;;;24.78;100.00;98426.28;6001525;29;98570;-60
2023/07/04 01:44:05;;;;;;;;;17.60;17.20;;;;;24.62;100.00;98417.72;6017991;29;97018;-61
2023/07/04 01:47:08;;;;;;;;;18.75;17.00;;;;;24.74;100.00;98441.88;6017847;29;96450;-60
2023/07/04 01:50:13;;;;;;;;;20.60;17.20;;;;;24.67;100.00;98436.84;6001282;29;96735;-60
2023/07/04 01:53:17;;;;;;;;;19.00;17.20;;;;;24.65;100.00;98444.63;6014918;28;97829;-60
2023/07/04 01:56:20;;;;;;;;;19.80;18.00;;;;;24.60;100.00;98437.34;5994800;29;96679;-61
2023/07/04 01:59:25;;;;;;;;;17.50;15.25;;;;;24.53;100.00;98428.72;5998211;29;96565;-60
2023/07/04 02:02:28;;;;;;;;;17.00;15.20;;;;;24.42;100.00;98432.16;5998844;29;97170;-60
2023/07/04 02:05:32;;;;;;;;;17.20;15.20;;;;;24.32;100.00;98430.50;6002635;29;96903;-60
2023/07/04 02:08:35;;;;;;;;;17.60;16.00;;;;;24.28;100.00;98432.31;6020306;29;96936;-60
2023/07/04 02:11:39;;;;;;;;;21.75;18.50;;;;;24.26;100.00;98436.50;6023488;29;96355;-61
2023/07/04 02:14:43;;;;;;;;;19.67;18.00;;;;;24.22;100.00;98430.81;6022876;29;96811;-60
2023/07/04 02:17:47;;;;;;;;;18.75;15.75;;;;;24.21;100.00;98440.22;6004187;29;96718;-60
2023/07/04 02:20:50;;;;;;;;;20.40;18.00;;;;;24.20;100.00;98444.09;6020234;29;97260;-60
2023/07/04 02:23:54;;;;;;;;;20.60;19.00;;;;;24.16;100.00;98441.19;6016843;29;97020;-61
2023/07/04 02:26:57;;;;;;;;;19.20;19.00;;;;;24.17;100.00;98434.53;6002845;29;98015;-62
2023/07/04 02:30:02;;;;;;;;;19.00;18.20;;;;;24.22;100.00;98436.34;6020128;29;96695;-60
2023/07/04 02:33:06;;;;;;;;;20.00;18.60;;;;;24.26;100.00;98434.56;6001160;29;96985;-60
2023/07/04 02:36:11;;;;;;;;;20.40;19.40;;;;;24.33;100.00;98439.59;6019431;29;96792;-60
2023/07/04 02:39:15;;;;;;;;;20.60;19.00;;;;;24.33;100.00;98434.09;6019499;29;96578;-60
2023/07/04 02:42:18;;;;;;;;;21.00;19.00;;;;;24.41;100.00;98442.34;6020011;29;96635;-60
2023/07/04 02:45:22;;;;;;;;;19.50;16.00;;;;;24.43;100.00;98442.03;6004372;28;97564;-60
2023/07/04 02:48:27;;;;;;;;;19.00;16.75;;;;;24.44;100.00;98438.13;6021512;29;96317;-60
2023/07/04 02:51:30;;;;;;;;;22.40;18.60;;;;;24.42;100.00;98443.97;6020347;29;97217;-60
2023/07/04 02:54:33;;;;;;;;;17.00;14.40;;;;;24.40;100.00;98445.41;6020082;28;96685;-60
2023/07/04 02:57:36;;;;;;;;;20.00;16.40;;;;;24.37;100.00;98438.63;6005477;29;96634;-60
2023/07/04 03:00:41;;;;;;;;;20.00;16.75;;;;;24.37;100.00;98435.06;6023993;28;96338;-60
2023/07/04 03:03:44;;;;;;;;;18.50;16.00;;;;;24.35;100.00;98426.28;6002510;29;96722;-60
2023/07/04 03:06:48;;;;;;;;;18.60;17.00;;;;;24.36;100.00;98427.91;6021311;29;97365;-60
2023/07/04 03:09:51;;;;;;;;;16.00;14.75;;;;;24.34;100.00;98430.97;6019617;29;96516;-60
2023/07/04 03:12:58;;;;;;;;;20.00;18.00;;;;;24.34;100.00;98428.22;6004273;29;97838;-60
2023/07/04 03:16:06;;;;;;;;;18.80;16.80;;;;;24.35;100.00;98427.09;6018827;29;96876;-60
2023/07/04 03:19:10;;;;;;;;;19.40;17.20;;;;;24.32;100.00;98427.75;6003947;29;96340;-60
2023/07/04 03:22:13;;;;;;;;;15.20;14.60;;;;;24.33;100.00;98434.91;6020259;29;96585;-60
2023/07/04 03:25:18;;;;;;;;;16.00;15.60;;;;;24.35;100.00;98435.38;6022454;28;96536;-61
2023/07/04 03:28:25;;;;;;;;;18.00;17.00;;;;;24.42;100.00;98441.22;6022131;29;96539;-60
2023/07/04 03:31:30;;;;;;;;;17.00;16.00;;;;;24.49;100.00;98452.56;6014522;28;96890;-61
2023/07/04 03:34:33;;;;;;;;;17.00;16.40;;;;;24.56;100.00;98452.09;6018359;29;96428;-60
2023/07/04 03:37:37;;;;;;;;;20.67;19.67;;;;;24.56;100.00;98457.59;6020109;29;96451;-60
2023/07/04 03:40:42;;;;;;;;;16.00;15.00;;;;;24.52;100.00;98460.19;6019243;29;96849;-60
2023/07/04 03:43:45;;;;;;;;;18.60;18.60;;;;;24.44;100.00;98465.69;6018599;28;96506;-61
2023/07/04 03:46:50;;;;;;;;;16.00;15.50;;;;;24.31;100.00;98461.13;5990210;29;98900;-60
2023/07/04 03:49:53;;;;;;;;;18.60;16.60;;;;;24.30;100.00;98473.28;6000531;29;96719;-61
2023/07/04 03:52:56;;;;;;;;;17.00;16.00;;;;;24.19;100.00;98469.22;6017338;29;96680;-61
2023/07/04 03:55:59;;;;;;;;;18.20;14.60;;;;;24.20;100.00;98465.31;6015206;29;96818;-60
2023/07/04 03:59:02;;;;;;;;;18.60;16.00;;;;;24.26;100.00;98467.59;6001619;29;98526;-60
2023/07/04 04:02:06;;;;;;;;;18.00;16.00;;;;;24.32;100.00;98473.78;6015574;28;96803;-61
2023/07/04 04:05:11;;;;;;;;;18.00;16.00;;;;;24.34;100.00;98474.25;6005069;29;96231;-60
2023/07/04 04:08:14;;;;;;;;;20.00;18.00;;;;;24.39;100.00;98479.59;6017000;28;97603;-60
2023/07/04 04:11:17;;;;;;;;;21.60;19.20;;;;;24.38;100.00;98486.28;6018119;29;96707;-60
2023/07/04 04:14:21;;;;;;;;;14.40;13.80;;;;;24.45;100.00;98479.16;6019292;29;96426;-61
2023/07/04 04:17:25;;;;;;;;;18.00;16.50;;;;;24.53;100.00;98488.56;5999294;29;98098;-60
2023/07/04 04:20:29;;;;;;;;;17.80;16.00;;;;;24.49;100.00;98484.81;6015874;28;96999;-61
2023/07/04 04:23:32;;;;;;;;;17.40;16.00;;;;;24.64;100.00;98494.56;6017252;29;96976;-61
2023/07/04 04:26:38;;;;;;;;;15.00;14.00;;;;;24.69;100.00;98494.41;6019736;29;97097;-60
2023/07/04 04:29:41;;;;;;;;;17.40;14.40;;;;;24.74;100.00;98499.75;6019237;29;96362;-60
2023/07/04 04:32:45;;;;;;;;;16.50;15.00;;;;;24.79;100.00;98500.41;6015972;29;96927;-60
2023/07/04 04:35:49;;;;;;;;;17.00;15.00;;;;;24.82;100.00;98507.25;6018908;29;96439;-61
2023/07/04 04:38:52;;;;;;;;;15.60;15.00;;;;;24.87;100.00;98507.13;6020977;29;96119;-61
2023/07/04 04:41:55;;;;;;;;;20.40;18.00;;;;;24.91;100.00;98511.66;6018791;29;97307;-61
2023/07/04 04:44:58;;;;;;;;;16.00;15.40;;;;;24.97;100.00;98513.09;6018591;28;96513;-61
2023/07/04 04:48:06;;;;;;;;;17.50;16.00;;;;;24.95;100.00;98509.88;6020478;29;96413;-61
2023/07/04 04:51:12;;;;;;;;;18.00;15.60;;;;;25.00;100.00;98511.63;6020792;29;96293;-61
2023/07/04 04:54:17;;;;;;;;;19.40;18.00;;;;;24.96;100.00;98521.72;6001055;29;96693;-60
2023/07/04 04:57:20;;;;;;;;;20.00;19.00;;;;;24.97;100.00;98513.09;6019661;29;96409;-60
2023/07/04 05:00:24;;;;;;;;;19.50;16.50;;;;;25.01;100.00;98525.13;6019105;29;96331;-60
2023/07/04 05:03:28;;;;;;;;;19.20;17.60;;;;;25.04;100.00;98518.13;6010158;29;96851;-60
2023/07/04 05:06:32;;;;;;;;;15.50;13.50;;;;;25.11;100.00;98523.16;6019489;29;96588;-61
2023/07/04 05:09:35;;;;;;;;;19.25;17.25;;;;;25.10;100.00;98521.53;6019263;29;96602;-60
2023/07/04 05:12:39;;;;;;;;;20.00;18.40;;;;;25.15;100.00;98524.94;6020026;29;96349;-61
2023/07/04 05:15:42;;;;;;;;;18.50;16.00;;;;;25.19;100.00;98527.84;6003243;29;96573;-61
2023/07/04 05:18:48;;;;;;;;;18.00;17.00;;;;;25.22;100.00;98535.47;6020102;29;96477;-61
2023/07/04 05:21:51;;;;;;;;;21.60;17.60;;;;;25.21;100.00;98536.63;6018708;29;96420;-61
2023/07/04 05:24:56;;;;;;;;;16.60;16.40;;;;;25.28;100.00;98540.50;6019246;29;99274;-60
2023/07/04 05:28:01;;;;;;;;;18.00;16.60;;;;;25.35;100.00;98543.59;6018478;29;96281;-60
2023/07/04 05:31:07;;;;;;;;;20.60;17.60;;;;;25.34;100.00;98549.41;6018875;29;96401;-61
2023/07/04 05:34:11;;;;;;;;;19.00;16.00;;;;;25.31;100.00;98545.38;6024259;29;96426;-61
2023/07/04 05:37:14;;;;;;;;;17.25;16.25;;;;;25.43;100.00;98553.78;6021697;29;96910;-60
2023/07/04 05:40:18;;;;;;;;;19.60;17.00;;;;;25.46;100.00;98555.88;6023896;29;96425;-61
2023/07/04 05:43:21;;;;;;;;;20.40;16.40;;;;;25.58;100.00;98549.75;6020838;29;98505;-60
2023/07/04 05:46:25;;;;;;;;;22.00;19.40;;;;;25.55;100.00;98542.13;6021095;29;99005;-61
2023/07/04 05:49:30;;;;;;;;;22.00;19.00;;;;;25.62;100.00;98555.41;6023625;29;96335;-60
2023/07/04 05:52:33;;;;;;;;;20.00;16.20;;;;;25.79;100.00;98555.38;6024202;29;96323;-61
2023/07/04 05:55:36;;;;;;;;;15.40;15.00;;;;;25.88;100.00;98562.50;6024220;29;96463;-60
2023/07/04 05:58:41;;;;;;;;;19.50;17.00;;;;;25.93;100.00;98555.97;6023916;29;96492;-61
2023/07/04 06:01:46;;;;;;;;;18.75;15.75;;;;;26.07;100.00;98562.09;6023016;29;96833;-61
2023/07/04 06:04:51;;;;;;;;;16.00;14.00;;;;;26.16;100.00;98562.06;6022042;29;97351;-61
2023/07/04 06:07:54;;;;;;;;;18.40;14.00;;;;;26.30;100.00;98548.84;6005708;29;96975;-60
2023/07/04 06:11:03;;;;;;;;;16.00;14.00;;;;;26.37;100.00;98557.44;6023909;28;96509;-61
2023/07/04 06:14:07;;;;;;;;;19.00;15.60;;;;;26.47;100.00;98553.50;6021796;29;96771;-60
2023/07/04 06:17:10;;;;;;;;;19.80;17.60;;;;;26.59;100.00;98561.84;6023811;29;96552;-61
2023/07/04 06:20:16;;;;;;;;;17.20;16.00;;;;;26.68;100.00;98548.81;6023267;29;96344;-60
2023/07/04 06:23:20;;;;;;;;;17.60;13.80;;;;;26.79;100.00;98566.63;6022142;29;96259;-60
2023/07/04 06:26:27;;;;;;;;;16.60;15.00;;;;;27.00;100.00;98561.13;6019755;29;97606;-60
2023/07/04 06:29:31;;;;;;;;;18.40;16.00;;;;;27.15;100.00;98564.09;6020958;29;96963;-60
2023/07/04 06:32:34;;;;;;;;;16.60;15.00;;;;;27.27;100.00;98571.63;6022987;29;96640;-61
2023/07/04 06:35:42;;;;;;;;;13.60;12.00;;;;;27.34;100.00;98563.63;6021592;29;96565;-61
2023/07/04 06:38:46;;;;;;;;;17.00;15.20;;;;;27.43;100.00;98578.19;6022095;29;96373;-61
2023/07/04 06:41:49;;;;;;;;;18.00;15.00;;;;;27.62;100.00;98571.34;6022665;29;96317;-60
2023/07/04 06:44:55;;;;;;;;;15.60;13.40;;;;;27.83;100.00;98581.25;6021545;29;96925;-61
2023/07/04 06:47:58;;;;;;;;;19.00;16.75;;;;;27.83;100.00;98572.94;6005676;29;97159;-61
2023/07/04 06:51:05;;;;;;;;;15.00;14.00;;;;;27.94;100.00;98571.34;6021178;29;96406;-61
2023/07/04 06:54:08;;;;;;;;;18.00;15.50;;;;;28.07;100.00;98579.66;6021065;29;96446;-61
2023/07/04 06:57:12;;;;;;;;;16.00;14.00;;;;;28.02;100.00;98589.00;6022046;29;97275;-61
2023/07/04 07:00:15;;;;;;;;;19.00;17.60;;;;;28.22;100.00;98584.56;6019742;29;96557;-60
2023/07/04 07:03:18;;;;;;;;;14.00;13.00;;;;;28.36;99.77;98585.03;6020583;29;97195;-60
2023/07/04 07:06:23;;;;;;;;;14.00;13.20;;;;;28.52;97.72;98585.97;6019572;29;96532;-61
2023/07/04 07:09:30;;;;;;;;;13.00;12.00;;;;;28.58;100.00;98587.38;6021898;29;96788;-61
2023/07/04 07:12:33;;;;;;;;;15.50;13.50;;;;;28.61;94.85;98585.84;6021183;29;96324;-61
2023/07/04 07:15:36;;;;;;;;;14.60;12.60;;;;;28.84;94.34;98589.78;6022413;29;97035;-61
2023/07/04 07:18:41;;;;;;;;;17.00;15.25;;;;;28.93;90.65;98598.78;6022464;29;97082;-61
2023/07/04 07:21:46;;;;;;;;;20.40;17.00;;;;;29.08;91.18;98584.19;6022675;29;96402;-60
2023/07/04 07:24:49;;;;;;;;;16.00;14.50;;;;;29.23;92.17;98596.53;6021614;28;96914;-61
2023/07/04 07:27:53;;;;;;;;;15.00;13.00;;;;;29.29;84.99;98589.56;6020996;29;96579;-61
2023/07/04 07:31:02;;;;;;;;;13.60;13.40;;;;;29.51;82.29;98599.38;6021112;29;96441;-61
2023/07/04 07:34:05;;;;;;;;;14.50;13.50;;;;;29.69;84.32;98598.69;6004644;29;98485;-61
2023/07/04 07:37:12;;;;;;;;;16.25;15.00;;;;;29.95;81.90;98592.69;6022143;29;96573;-61
2023/07/04 07:40:15;;;;;;;;;12.00;11.50;;;;;30.08;70.48;98604.53;6021999;29;96300;-61
2023/07/04 07:43:19;;;;;;;;;13.00;12.00;;;;;30.20;66.86;98596.13;6020681;29;97083;-61
2023/07/04 07:46:22;;;;;;;;;10.00;10.00;;;;;30.24;63.47;98574.78;6021872;29;96373;-61
2023/07/04 07:49:25;;;;;;;;;12.60;12.40;;;;;30.68;65.76;98602.50;6020830;29;96945;-61
2023/07/04 07:52:29;;;;;;;;;10.00;10.00;;;;;30.84;59.57;98606.84;6021668;29;96843;-61
2023/07/04 07:55:33;;;;;;;;;11.00;9.60;;;;;31.13;56.83;98599.22;6021632;28;97570;-61
2023/07/04 07:58:37;;;;;;;;;11.00;9.00;;;;;31.20;56.12;98596.56;6021613;29;96645;-61
2023/07/04 08:01:40;;;;;;;;;11.00;10.00;;;;;31.37;55.10;98608.06;6019234;29;97828;-61
2023/07/04 08:04:43;;;;;;;;;8.60;7.60;;;;;31.42;46.48;98599.41;6020752;29;96628;-61
2023/07/04 08:07:48;;;;;;;;;8.00;7.00;;;;;31.66;47.35;98609.53;6004015;29;97861;-61
2023/07/04 08:10:51;;;;;;;;;9.40;9.00;;;;;31.95;47.99;98605.31;6004868;29;97016;-61
2023/07/04 08:13:56;;;;;;;;;11.00;10.00;;;;;32.08;48.42;98601.16;6021668;29;96481;-61
2023/07/04 08:16:59;;;;;;;;;9.00;8.00;;;;;32.27;44.13;98596.72;6022478;29;96610;-61
2023/07/04 08:20:03;;;;;;;;;8.60;8.00;;;;;32.51;46.39;98596.31;6020344;29;96284;-61
2023/07/04 08:23:08;;;;;;;;;11.75;11.00;;;;;32.72;47.00;98599.50;6020698;29;96759;-61
2023/07/04 08:26:15;;;;;;;;;12.00;10.00;;;;;32.69;47.39;98597.47;6003393;29;97607;-61
2023/07/04 08:29:18;;;;;;;;;11.40;11.00;;;;;32.81;45.63;98586.06;6021406;29;96342;-61
2023/07/04 08:32:21;;;;;;;;;11.00;10.00;;;;;32.83;45.72;98580.94;6020898;29;96504;-61
2023/07/04 08:35:24;;;;;;;;;10.40;9.00;;;;;32.93;50.35;98596.25;6019830;29;98450;-61
2023/07/04 08:38:29;;;;;;;;;11.60;10.00;;;;;32.92;48.56;98580.66;6020695;28;97642;-61
2023/07/04 08:41:42;;;;;;;;;9.00;8.40;;;;;33.04;45.54;98591.59;6020932;29;96410;-61
2023/07/04 08:44:48;;;;;;;;;9.00;9.00;;;;;33.13;45.26;98594.13;6019237;29;97679;-61
2023/07/04 08:47:52;;;;;;;;;8.80;8.00;;;;;33.09;43.41;98583.69;6019636;29;96705;-59
2023/07/04 08:50:59;;;;;;;;;11.00;10.00;;;;;33.23;40.09;98593.50;6004469;29;99579;-59
2023/07/04 08:54:09;;;;;;;;;10.00;8.20;;;;;33.15;42.99;98589.75;6021186;29;96986;-61
2023/07/04 08:57:23;;;;;;;;;10.00;9.00;;;;;33.38;45.56;98590.47;6019653;29;96792;-61
2023/07/04 09:00:31;;;;;;;;;9.00;8.00;;;;;33.40;42.18;98590.13;6021317;29;96430;-61
2023/07/04 09:03:45;;;;;;;;;9.00;9.00;;;;;33.75;43.36;98582.19;6021488;29;96496;-61
2023/07/04 09:06:56;;;;;;;;;6.00;6.00;;;;;34.05;41.73;98593.28;6020441;29;96366;-61
2023/07/04 09:10:11;;;;;;;;;9.00;9.00;;;;;34.17;40.38;98593.00;6021201;29;96485;-61
2023/07/04 09:13:21;;;;;;;;;8.20;7.00;;;;;33.96;41.31;98590.00;6019381;29;98935;-61
2023/07/04 09:16:32;;;;;;;;;11.00;10.40;;;;;33.81;43.20;98585.44;6019535;29;96871;-61
2023/07/04 09:19:45;;;;;;;;;11.00;11.00;;;;;33.74;44.33;98583.38;6019805;29;96347;-59
2023/07/04 09:22:48;;;;;;;;;11.00;10.00;;;;;33.72;44.30;98588.53;6021139;29;96813;-61
2023/07/04 09:25:56;;;;;;;;;13.00;11.60;;;;;33.90;45.64;98589.53;6019820;29;96344;-61
2023/07/04 09:29:00;;;;;;;;;10.00;9.00;;;;;33.81;44.98;98585.44;6020860;29;96986;-59
2023/07/04 09:32:03;;;;;;;;;10.00;8.80;;;;;33.58;45.61;98595.91;6020462;29;96509;-61
2023/07/04 09:35:09;;;;;;;;;9.00;8.40;;;;;33.62;46.18;98594.00;6020574;29;96513;-61
2023/07/04 09:38:12;;;;;;;;;11.00;9.00;;;;;33.63;46.78;98592.78;6020660;29;96334;-59
2023/07/04 09:41:16;;;;;;;;;10.00;9.00;;;;;33.56;46.87;98578.72;6018878;29;97082;-59
2023/07/04 09:44:31;;;;;;;;;8.80;7.80;;;;;33.46;45.90;98583.81;6019494;29;97034;-59
2023/07/04 09:47:34;;;;;;;;;9.00;8.00;;;;;33.45;46.01;98590.59;6020674;29;96426;-61
2023/07/04 09:50:40;;;;;;;;;8.00;7.80;;;;;33.50;46.65;98601.44;6019775;29;96932;-60
2023/07/04 09:53:44;;;;;;;;;9.00;8.50;;;;;33.38;43.14;98593.28;6020552;29;96306;-61
2023/07/04 09:56:48;;;;;;;;;9.00;8.60;;;;;33.50;47.12;98592.25;6020737;29;96362;-61
2023/07/04 09:59:53;;;;;;;;;10.60;10.00;;;;;33.33;42.81;98590.81;6020242;29;96209;-59
2023/07/04 10:03:07;;;;;;;;;7.00;7.00;;;;;33.42;44.59;98582.16;6018861;29;96420;-61
2023/07/04 10:06:12;;;;;;;;;8.50;7.50;;;;;33.07;42.42;98591.66;6018548;28;96563;-61
2023/07/04 10:09:20;;;;;;;;;10.00;9.00;;;;;33.39;44.80;98591.28;6002004;29;96522;-61
2023/07/04 10:12:25;;;;;;;;;12.40;10.00;;;;;33.70;43.75;98592.91;6020515;29;96895;-61
2023/07/04 10:15:39;;;;;;;;;10.00;9.00;;;;;33.71;42.19;98588.94;6018993;29;96610;-62
2023/07/04 10:18:42;;;;;;;;;11.00;10.00;;;;;33.66;42.76;98592.03;6020487;29;96312;-59
2023/07/04 10:21:48;;;;;;;;;9.00;7.00;;;;;33.76;42.41;98577.41;6005553;29;99062;-59
2023/07/04 10:24:52;;;;;;;;;9.00;8.00;;;;;34.06;42.85;98588.50;6022991;28;96406;-61
2023/07/04 10:28:08;;;;;;;;;8.00;7.00;;;;;33.87;41.40;98595.06;6023040;29;96437;-61
2023/07/04 10:31:18;;;;;;;;;8.00;8.00;;;;;33.78;43.86;98583.41;6006838;29;97180;-61
2023/07/04 10:34:23;;;;;;;;;7.50;7.50;;;;;33.94;41.68;98581.19;6023686;29;97800;-59
2023/07/04 10:37:34;;;;;;;;;9.00;8.20;;;;;34.09;41.22;98582.13;6023998;29;96940;-60
2023/07/04 10:40:40;;;;;;;;;7.00;7.00;;;;;34.14;39.64;98582.59;6024055;29;97102;-61
2023/07/04 10:43:51;;;;;;;;;8.60;7.60;;;;;34.24;41.34;98593.09;6006108;29;98764;-61
2023/07/04 10:46:58;;;;;;;;;9.60;8.00;;;;;34.44;39.75;98588.09;6006472;29;98094;-61
2023/07/04 10:50:06;;;;;;;;;9.00;7.00;;;;;34.59;39.13;98589.81;6023603;29;96351;-61
2023/07/04 10:53:09;;;;;;;;;7.00;7.00;;;;;34.49;39.38;98592.53;6021915;28;97173;-59
2023/07/04 10:56:24;;;;;;;;;7.00;6.00;;;;;34.53;41.81;98588.56;6021989;29;98710;-61
2023/07/04 10:59:32;;;;;;;;;8.00;7.00;;;;;34.68;38.18;98587.50;6022404;29;96397;-61
2023/07/04 11:02:38;;;;;;;;;8.00;7.00;;;;;34.46;38.83;98593.28;6005748;29;99038;-61
2023/07/04 11:05:44;;;;;;;;;6.20;5.20;;;;;33.99;37.45;98586.44;6022075;29;96343;-61
2023/07/04 11:08:50;;;;;;;;;9.00;7.40;;;;;33.76;38.64;98583.00;6023424;29;96253;-61
2023/07/04 11:12:02;;;;;;;;;8.40;8.00;;;;;33.78;40.22;98587.00;6005789;29;97053;-61
2023/07/04 11:15:22;;;;;;;;;7.80;6.80;;;;;34.07;42.17;98581.69;6006461;29;100019;-61
2023/07/04 11:18:30;;;;;;;;;8.80;7.00;;;;;34.22;38.83;98581.47;6023227;29;96357;-59
2023/07/04 11:21:34;;;;;;;;;8.80;8.00;;;;;34.08;37.80;98578.53;6021903;29;96572;-61
2023/07/04 11:24:40;;;;;;;;;10.00;8.50;;;;;34.20;39.68;98574.69;6022285;29;96385;-61
2023/07/04 11:28:14;;;;;;;;;10.40;8.40;;;;;33.95;36.84;98577.19;6020923;29;98957;-59
2023/07/04 11:31:24;;;;;;;;;9.60;9.40;;;;;33.98;38.39;98573.63;6022456;29;96525;-61
2023/07/04 11:34:42;;;;;;;;;8.00;8.00;;;;;34.31;38.42;98576.38;6021898;29;96560;-61
2023/07/04 11:37:53;;;;;;;;;12.00;10.00;;;;;34.19;36.31;98573.06;6020600;29;98438;-60
2023/07/04 11:40:57;;;;;;;;;14.50;13.00;;;;;34.27;35.16;98572.72;6005513;29;96686;-61
2023/07/04 11:44:12;;;;;;;;;13.80;11.20;;;;;34.11;33.02;98568.56;6020618;29;96400;-59
2023/07/04 11:47:34;;;;;;;;;16.60;15.20;;;;;34.20;34.73;98569.09;6022551;29;96374;-61
2023/07/04 11:50:43;;;;;;;;;15.00;14.00;;;;;34.14;32.92;98574.19;6022294;29;96329;-61
2023/07/04 11:53:48;;;;;;;;;16.20;14.20;;;;;34.18;35.88;98575.06;6022011;29;96466;-59
2023/07/04 11:56:52;;;;;;;;;18.80;16.00;;;;;34.32;31.73;98577.16;6021401;29;96499;-59
2023/07/04 11:59:55;;;;;;;;;13.50;11.50;;;;;34.15;32.84;98580.59;6020973;29;97458;-59
2023/07/04 12:03:36;;;;;;;;;17.00;14.00;;;;;33.88;31.39;98572.34;6003932;29;98477;-59
2023/07/04 12:07:01;;;;;;;;;16.40;14.40;;;;;33.99;32.06;98582.81;6021783;29;96388;-61
2023/07/04 12:10:11;;;;;;;;;15.40;13.40;;;;;33.58;31.89;98584.72;6019752;29;96960;-61
2023/07/04 12:13:21;;;;;;;;;16.00;12.75;;;;;33.62;32.17;98582.81;6022234;29;96374;-61
2023/07/04 12:16:25;;;;;;;;;15.80;14.40;;;;;33.62;32.46;98575.22;6021984;29;96299;-59
2023/07/04 12:19:29;;;;;;;;;9.60;9.60;;;;;33.71;35.00;98574.94;6019501;29;96295;-59
2023/07/04 12:22:32;;;;;;;;;11.00;10.00;;;;;33.91;35.97;98574.38;6021034;29;96608;-61
2023/07/04 12:25:40;;;;;;;;;12.00;11.00;;;;;34.04;36.15;98574.91;6020093;28;96500;-61
2023/07/04 12:28:46;;;;;;;;;8.60;8.00;;;;;34.16;36.69;98571.78;6019664;29;96764;-61
2023/07/04 12:32:03;;;;;;;;;9.50;8.25;;;;;34.18;35.11;98563.88;6021508;29;96525;-59
2023/07/04 12:35:15;;;;;;;;;8.00;7.00;;;;;34.17;36.71;98565.00;6022209;29;96939;-61
2023/07/04 12:38:18;;;;;;;;;7.00;7.00;;;;;34.16;36.09;98568.22;6021681;29;96325;-58
2023/07/04 12:41:30;;;;;;;;;7.60;7.60;;;;;34.03;36.82;98564.88;6020893;29;96684;-61
2023/07/04 12:44:36;;;;;;;;;4.00;3.80;;;;;33.67;35.16;98552.56;6019210;29;98436;-60
2023/07/04 12:47:47;;;;;;;;;5.50;5.00;;;;;33.24;35.68;98528.03;5998009;29;96279;-60
2023/07/04 12:50:55;;;;;;;;;4.00;4.00;;;;;33.35;36.22;98545.75;5997213;29;96293;-61
2023/07/04 12:54:03;;;;;;;;;5.00;5.00;;;;;33.40;36.87;98548.19;5996482;29;96402;-61
2023/07/04 12:57:17;;;;;;;;;7.00;6.25;;;;;33.42;37.11;98559.81;6013214;29;96320;-61
2023/07/04 13:00:26;;;;;;;;;5.00;4.00;;;;;33.39;38.38;98554.97;6020788;29;96748;-61
2023/07/04 13:03:31;;;;;;;;;6.00;5.00;;;;;33.42;38.03;98543.03;6017705;29;96673;-61
2023/07/04 13:06:36;;;;;;;;;6.25;5.00;;;;;33.46;37.42;98547.47;6019189;29;96401;-61
2023/07/04 13:09:43;;;;;;;;;4.00;4.00;;;;;33.34;38.51;98549.72;6020802;29;96565;-60
2023/07/04 13:12:47;;;;;;;;;5.00;5.00;;;;;33.42;36.14;98555.03;6021252;29;96547;-61
2023/07/04 13:16:08;;;;;;;;;6.00;6.00;;;;;33.02;36.44;98555.69;6020498;29;95996;-61
2023/07/04 13:19:17;;;;;;;;;7.60;6.00;;;;;33.06;39.31;98555.72;6003599;29;97544;-61
2023/07/04 13:22:26;;;;;;;;;3.50;3.00;;;;;32.76;37.45;98550.09;6021282;29;96225;-61
2023/07/04 13:25:48;;;;;;;;;3.00;2.80;;;;;32.90;39.14;98541.13;6019845;29;96263;-61
2023/07/04 13:28:54;;;;;;;;;4.00;4.00;;;;;32.92;38.04;98549.94;6019675;29;96556;-61
2023/07/04 13:32:22;;;;;;;;;4.00;4.00;;;;;33.09;40.34;98543.78;6019909;29;96380;-61
2023/07/04 13:35:35;;;;;;;;;4.00;4.00;;;;;33.13;36.93;98522.31;6018096;29;96433;-61
2023/07/04 13:38:41;;;;;;;;;5.00;5.00;;;;;33.27;39.53;98539.28;6020046;29;96298;-61
2023/07/04 13:41:50;;;;;;;;;3.00;3.00;;;;;33.19;38.54;98537.56;6020872;29;96329;-60
2023/07/04 13:44:53;;;;;;;;;4.00;4.00;;;;;33.13;37.14;98533.47;6018787;29;96693;-61
2023/07/04 13:47:59;;;;;;;;;4.00;3.00;;;;;33.20;37.48;98525.19;6019730;29;96841;-61
2023/07/04 13:51:03;;;;;;;;;2.00;2.00;;;;;32.97;37.38;98542.03;6019914;29;96680;-61
2023/07/04 13:54:07;;;;;;;;;2.00;2.00;;;;;33.07;38.06;98527.41;6022337;28;96513;-61
2023/07/04 13:57:11;;;;;;;;;3.50;2.00;;;;;33.08;39.95;98529.03;6025143;28;96343;-61
2023/07/04 14:00:16;;;;;;;;;5.00;4.00;;;;;33.06;39.50;98527.78;6023357;29;96608;-61
2023/07/04 14:03:30;;;;;;;;;3.00;3.00;;;;;33.16;40.50;98515.97;6020972;29;96274;-61
2023/07/04 14:06:36;;;;;;;;;3.80;3.80;;;;;33.33;39.60;98518.16;6021807;29;96408;-61
2023/07/04 14:09:41;;;;;;;;;5.00;5.00;;;;;33.46;40.69;98525.13;6005496;29;98792;-61
2023/07/04 14:12:45;;;;;;;;;5.75;4.00;;;;;33.36;40.00;98506.25;6006099;29;96886;-61
2023/07/04 14:15:54;;;;;;;;;7.00;6.00;;;;;33.31;41.31;98516.94;6006327;29;98865;-61
2023/07/04 14:19:00;;;;;;;;;5.00;5.00;;;;;33.40;43.12;98521.06;6022834;29;96915;-58